LEAB/ABC METAR and TAF weather

Enter ICAO airport designator
Station Type Date Time Source
LEAB METAR 2019/09/20 20:00 UTC NOAA

LEAB 202000Z 14009KT 100V160 CAVOK 20/16 Q1016 NOSIG


Station Type Date Time Source
LEAB Decoded METAR 2019/09/20 20:00 UTC NOAA

Albacete / Los Llanos, Spain (LEAB) 38-57N 001-51W 704M
Sep 20, 2019 - 04:00 PM EDT / 2019.09.20 2000 UTC
Wind: from the SE (140 degrees) at 10 MPH (9 KT) (direction variable):0
Visibility: greater than 7 mile(s):0
Temperature: 68 F (20 C)
Dew Point: 60 F (16 C)
Relative Humidity: 77%
Pressure (altimeter): 30.00 in. Hg (1016 hPa)
ob: LEAB 202000Z 14009KT 100V160 CAVOK 20/16 Q1016 NOSIG
cycle: 20

Station Type Date Time Source
LEAB TAF 2018/04/26 18:51 UTC NOAA

TAF
AMD LEAB 261747Z 2618/2706 16012KT 9999 FEW040
BECMG 2704/2706 27015KT
TEMPO 2704/2706 BKN014

Example: see airport list